Time;durP1;ratioP1;P1;durP2;ratioP2;P2;SDS_P1;SDS_P2;PMS_P1;PMS_P2;Temp;Humidity;BMP_temperature;BMP_pressure;BME280_temperature;BME280_humidity;BME280_pressure;Samples;Min_cycle;Max_cycle;Signal;HPM_P1;HPM_P2
2022/01/04 00:01:33;;;;;;;;;;;6.30;99.90;;;;;;5053240;28;19916;-73
2022/01/04 00:03:59;;;;;;;;;;;6.30;99.90;;;;;;5072583;28;20267;-73
2022/01/04 00:06:25;;;;;;;;;;;6.30;99.90;;;;;;5071345;28;19914;-73
2022/01/04 00:08:51;;;;;;;;;;;6.30;99.90;;;;;;5071889;28;19977;-73
2022/01/04 00:11:17;;;;;;;;;;;6.30;99.90;;;;;;5053274;28;19987;-73
2022/01/04 00:13:43;;;;;;;;;;;6.40;99.90;;;;;;5072288;28;19919;-74
2022/01/04 00:16:10;;;;;;;;;;;6.40;99.90;;;;;;5071559;28;19912;-73
2022/01/04 00:18:37;;;;;;;;;;;6.30;99.90;;;;;;5053058;28;20532;-72
2022/01/04 00:21:02;;;;;;;;;;;6.30;99.90;;;;;;5071219;28;19961;-72
2022/01/04 00:23:28;;;;;;;;;;;6.30;99.90;;;;;;5053865;28;19989;-74
2022/01/04 00:25:53;;;;;;;;;;;6.30;99.90;;;;;;5071184;28;19912;-73
2022/01/04 00:28:19;;;;;;;;;;;6.40;99.90;;;;;;5070946;28;19912;-73
2022/01/04 00:30:45;;;;;;;;;;;6.40;99.90;;;;;;5071092;28;19909;-73
2022/01/04 00:33:12;;;;;;;;;;;6.40;99.90;;;;;;5071755;28;19998;-73
2022/01/04 00:35:38;;;;;;;;;;;6.40;99.90;;;;;;5071033;28;19912;-74
2022/01/04 00:38:04;;;;;;;;;;;6.50;99.90;;;;;;5071574;28;19912;-72
2022/01/04 00:40:29;;;;;;;;;;;6.40;99.90;;;;;;5050211;28;19912;-73
2022/01/04 00:42:55;;;;;;;;;;;6.50;99.90;;;;;;5051681;28;19948;-72
2022/01/04 00:45:22;;;;;;;;;;;6.40;99.90;;;;;;5033696;28;19999;-74
2022/01/04 00:50:19;;;;;;;;;;;6.40;99.90;;;;;;5070991;28;19912;-72
2022/01/04 00:52:44;;;;;;;;;;;6.30;99.90;;;;;;5071109;28;19969;-72
2022/01/04 00:55:10;;;;;;;;;;;6.30;99.90;;;;;;5071157;28;20358;-73
2022/01/04 00:57:36;;;;;;;;;;;6.40;99.90;;;;;;5070333;28;19946;-72
2022/01/04 01:00:03;;;;;;;;;;;6.30;99.90;;;;;;5070818;28;19908;-74
2022/01/04 01:02:28;;;;;;;;;;;6.30;99.90;;;;;;5052570;28;20277;-72
2022/01/04 01:04:54;;;;;;;;;;;6.20;99.90;;;;;;5071050;28;19912;-73
2022/01/04 01:07:19;;;;;;;;;;;6.20;99.90;;;;;;5070088;28;19912;-73
2022/01/04 01:10:02;;;;;;;;;;;6.20;99.90;;;;;;5070309;28;19932;-73
2022/01/04 01:12:27;;;;;;;;;;;6.20;99.90;;;;;;5070452;28;19909;-73
2022/01/04 01:14:53;;;;;;;;;;;6.30;99.90;;;;;;5070884;28;20356;-72
2022/01/04 01:17:19;;;;;;;;;;;6.30;99.90;;;;;;5052307;28;19920;-73
2022/01/04 01:19:44;;;;;;;;;;;6.30;99.90;;;;;;5070447;28;19915;-72
2022/01/04 01:22:10;;;;;;;;;;;6.30;99.90;;;;;;5070219;28;19917;-73
2022/01/04 01:24:35;;;;;;;;;;;6.30;99.90;;;;;;5070705;28;19914;-72
2022/01/04 01:27:01;;;;;;;;;;;6.30;99.90;;;;;;5070242;28;19911;-73
2022/01/04 01:29:28;;;;;;;;;;;6.30;99.90;;;;;;5070058;28;20003;-73
2022/01/04 01:31:54;;;;;;;;;;;6.30;99.90;;;;;;5052178;28;19912;-73
2022/01/04 01:34:20;;;;;;;;;;;6.30;99.90;;;;;;5070562;28;20342;-73
2022/01/04 01:36:45;;;;;;;;;;;6.30;99.90;;;;;;5069658;28;19912;-72
2022/01/04 01:39:11;;;;;;;;;;;6.30;99.90;;;;;;5069718;28;20275;-72
2022/01/04 01:41:36;;;;;;;;;;;6.30;99.90;;;;;;5058431;28;20004;-72
2022/01/04 01:44:02;;;;;;;;;;;6.30;99.90;;;;;;5050699;28;20319;-73
2022/01/04 01:46:28;;;;;;;;;;;6.30;99.90;;;;;;5042045;28;20415;-72
2022/01/04 01:48:53;;;;;;;;;;;6.30;99.90;;;;;;5070150;28;19908;-73
2022/01/04 01:51:19;;;;;;;;;;;6.30;99.90;;;;;;5051823;28;20325;-73
2022/01/04 01:53:45;;;;;;;;;;;6.30;99.90;;;;;;5070493;28;20264;-73
2022/01/04 01:56:10;;;;;;;;;;;6.30;99.90;;;;;;5051472;28;20326;-73
2022/01/04 01:58:36;;;;;;;;;;;6.30;99.90;;;;;;5069917;28;20271;-72
2022/01/04 02:01:02;;;;;;;;;;;6.30;99.90;;;;;;5051591;28;19912;-73
2022/01/04 02:03:27;;;;;;;;;;;6.30;99.90;;;;;;5051904;28;19908;-72
2022/01/04 02:05:53;;;;;;;;;;;6.30;99.90;;;;;;5051646;28;20402;-73
2022/01/04 02:08:19;;;;;;;;;;;6.30;99.90;;;;;;5069943;28;19985;-73
2022/01/04 02:10:45;;;;;;;;;;;6.30;99.90;;;;;;5055075;28;19908;-72
2022/01/04 02:13:10;;;;;;;;;;;6.30;99.90;;;;;;5056118;28;20183;-72
2022/01/04 02:15:36;;;;;;;;;;;6.30;99.90;;;;;;5074130;28;19915;-73
2022/01/04 02:18:02;;;;;;;;;;;6.30;99.90;;;;;;5074411;28;19917;-73
2022/01/04 02:20:28;;;;;;;;;;;6.40;99.90;;;;;;5073317;28;19978;-73
2022/01/04 02:22:54;;;;;;;;;;;6.40;99.90;;;;;;5055929;28;19912;-73
2022/01/04 02:25:20;;;;;;;;;;;6.30;99.90;;;;;;5072847;28;20402;-72
2022/01/04 02:27:45;;;;;;;;;;;6.30;99.90;;;;;;5053877;28;19912;-72
2022/01/04 02:30:14;;;;;;;;;;;6.20;99.90;;;;;;5053186;28;20423;-73
2022/01/04 02:32:40;;;;;;;;;;;6.20;99.90;;;;;;5035642;28;19999;-74
2022/01/04 02:35:06;;;;;;;;;;;6.20;99.90;;;;;;5035592;28;20419;-72
2022/01/04 02:37:33;;;;;;;;;;;6.10;99.90;;;;;;5072115;28;19952;-72
2022/01/04 02:39:58;;;;;;;;;;;6.20;99.90;;;;;;5072950;28;19909;-73
2022/01/04 02:42:24;;;;;;;;;;;6.10;99.90;;;;;;5037241;28;19982;-73
2022/01/04 02:44:50;;;;;;;;;;;6.10;99.90;;;;;;5053422;28;20193;-74
2022/01/04 02:47:16;;;;;;;;;;;6.10;99.90;;;;;;5051832;28;19923;-74
2022/01/04 02:49:41;;;;;;;;;;;6.10;99.90;;;;;;5073341;28;19908;-72
2022/01/04 02:52:07;;;;;;;;;;;6.10;99.90;;;;;;5073176;28;19918;-72
2022/01/04 02:54:32;;;;;;;;;;;6.10;99.90;;;;;;5055385;28;20010;-72
2022/01/04 02:56:58;;;;;;;;;;;6.10;99.90;;;;;;5055417;28;19908;-72
2022/01/04 02:59:24;;;;;;;;;;;6.10;99.90;;;;;;5072801;28;19955;-72
2022/01/04 03:01:49;;;;;;;;;;;6.10;99.90;;;;;;5055063;28;19931;-72
2022/01/04 03:04:15;;;;;;;;;;;6.10;99.90;;;;;;5073150;28;19958;-74
2022/01/04 03:06:41;;;;;;;;;;;6.20;99.90;;;;;;5072928;28;19911;-73
2022/01/04 03:09:06;;;;;;;;;;;6.20;99.90;;;;;;5073128;28;20281;-73
2022/01/04 03:11:33;;;;;;;;;;;6.10;99.90;;;;;;5072717;28;19909;-74
2022/01/04 03:13:59;;;;;;;;;;;6.10;99.90;;;;;;5073312;28;19909;-74
2022/01/04 03:16:25;;;;;;;;;;;6.00;99.90;;;;;;5073046;28;20069;-73
2022/01/04 03:19:03;;;;;;;;;;;6.00;99.90;;;;;;5054660;28;19916;-73
2022/01/04 03:21:31;;;;;;;;;;;6.00;99.90;;;;;;5071037;28;19908;-73
2022/01/04 03:23:57;;;;;;;;;;;6.00;99.90;;;;;;5054395;28;19965;-74
2022/01/04 03:26:23;;;;;;;;;;;6.00;99.90;;;;;;5072506;28;20415;-72
2022/01/04 03:28:48;;;;;;;;;;;6.00;99.90;;;;;;5054501;28;20272;-73
2022/01/04 03:31:14;;;;;;;;;;;6.00;99.90;;;;;;5071962;28;20005;-73
2022/01/04 03:33:40;;;;;;;;;;;6.00;99.90;;;;;;5055005;28;19952;-73
2022/01/04 03:36:06;;;;;;;;;;;6.00;99.90;;;;;;5054652;28;20418;-73
2022/01/04 03:38:31;;;;;;;;;;;5.90;99.90;;;;;;5072702;28;20301;-73
2022/01/04 03:40:57;;;;;;;;;;;5.90;99.90;;;;;;5066245;28;20195;-74
2022/01/04 03:43:24;;;;;;;;;;;6.00;99.90;;;;;;5034721;28;19916;-74
2022/01/04 03:45:50;;;;;;;;;;;6.10;99.90;;;;;;5056980;28;19916;-73
2022/01/04 03:48:15;;;;;;;;;;;6.00;99.90;;;;;;5072329;28;19919;-72
2022/01/04 03:50:41;;;;;;;;;;;6.00;99.90;;;;;;5071867;28;19912;-73
2022/01/04 03:53:07;;;;;;;;;;;6.00;99.90;;;;;;5072775;28;19913;-73
2022/01/04 03:55:33;;;;;;;;;;;6.00;99.90;;;;;;5053805;28;19954;-73
2022/01/04 03:57:58;;;;;;;;;;;6.00;99.90;;;;;;5072357;28;19912;-72
2022/01/04 04:00:24;;;;;;;;;;;6.00;99.90;;;;;;5071180;28;20006;-74
2022/01/04 04:02:49;;;;;;;;;;;6.10;99.90;;;;;;5072143;28;19966;-74
2022/01/04 04:05:15;;;;;;;;;;;6.10;99.90;;;;;;5053990;28;19913;-73
2022/01/04 04:07:41;;;;;;;;;;;6.20;99.90;;;;;;5053593;28;19912;-74
2022/01/04 04:10:07;;;;;;;;;;;6.10;99.90;;;;;;5071297;28;19928;-74
2022/01/04 04:12:33;;;;;;;;;;;6.10;99.90;;;;;;5071715;28;20348;-74
2022/01/04 04:15:03;;;;;;;;;;;6.10;99.90;;;;;;5071688;28;19995;-73
2022/01/04 04:17:29;;;;;;;;;;;6.10;99.90;;;;;;5071487;28;19912;-74
2022/01/04 04:19:55;;;;;;;;;;;6.10;99.90;;;;;;5071735;28;20061;-74
2022/01/04 04:22:20;;;;;;;;;;;6.00;99.90;;;;;;5053044;28;19912;-73
2022/01/04 04:24:46;;;;;;;;;;;6.00;99.90;;;;;;5071491;28;20265;-73
2022/01/04 04:27:12;;;;;;;;;;;6.00;99.90;;;;;;5071266;28;19914;-72
2022/01/04 04:29:38;;;;;;;;;;;5.90;99.90;;;;;;5070794;28;20269;-72
2022/01/04 04:32:04;;;;;;;;;;;5.90;99.90;;;;;;5052423;28;19988;-73
2022/01/04 04:34:29;;;;;;;;;;;5.80;99.90;;;;;;5071280;28;20414;-72
2022/01/04 04:36:55;;;;;;;;;;;5.70;99.90;;;;;;5070877;28;19904;-73
2022/01/04 04:39:21;;;;;;;;;;;5.80;99.90;;;;;;5071105;28;19987;-73
2022/01/04 04:41:46;;;;;;;;;;;5.70;99.90;;;;;;5057965;28;20286;-73
2022/01/04 04:44:12;;;;;;;;;;;5.70;99.90;;;;;;5033121;28;19986;-72
2022/01/04 04:46:37;;;;;;;;;;;5.80;99.90;;;;;;5062488;28;19908;-72
2022/01/04 04:49:05;;;;;;;;;;;5.90;99.90;;;;;;5070876;28;19950;-72
2022/01/04 04:51:31;;;;;;;;;;;5.90;99.90;;;;;;5060281;28;19916;-73
2022/01/04 04:53:56;;;;;;;;;;;5.90;99.90;;;;;;5033135;28;20315;-72
2022/01/04 04:56:22;;;;;;;;;;;5.90;99.90;;;;;;5041931;28;19946;-72
2022/01/04 04:58:47;;;;;;;;;;;5.90;99.90;;;;;;5052678;28;19912;-72
2022/01/04 05:01:13;;;;;;;;;;;6.00;99.90;;;;;;5052321;28;20351;-72
2022/01/04 05:03:38;;;;;;;;;;;6.00;99.90;;;;;;5053292;28;20374;-73
2022/01/04 05:06:04;;;;;;;;;;;6.00;99.90;;;;;;5052461;28;19912;-72
2022/01/04 05:08:30;;;;;;;;;;;6.00;99.90;;;;;;5070337;28;19958;-74
2022/01/04 05:10:57;;;;;;;;;;;6.00;99.90;;;;;;5052542;28;19916;-73
2022/01/04 05:13:23;;;;;;;;;;;6.00;99.90;;;;;;5052690;28;20392;-72
2022/01/04 05:15:49;;;;;;;;;;;5.80;99.90;;;;;;5052191;28;19919;-72
2022/01/04 05:18:15;;;;;;;;;;;6.10;99.90;;;;;;5070505;28;19908;-73
2022/01/04 05:20:40;;;;;;;;;;;6.10;99.90;;;;;;5052202;28;20376;-72
2022/01/04 05:23:06;;;;;;;;;;;6.10;99.90;;;;;;5070644;28;19908;-73
2022/01/04 05:25:31;;;;;;;;;;;6.10;99.90;;;;;;5069864;28;19913;-73
2022/01/04 05:27:57;;;;;;;;;;;6.10;99.90;;;;;;5070758;28;19908;-74
2022/01/04 05:30:23;;;;;;;;;;;6.10;99.90;;;;;;5069709;28;19938;-73
2022/01/04 05:32:48;;;;;;;;;;;6.10;99.90;;;;;;5070310;28;19905;-72
2022/01/04 05:35:14;;;;;;;;;;;6.10;99.90;;;;;;5070282;28;19956;-73
2022/01/04 05:37:40;;;;;;;;;;;6.10;99.90;;;;;;5051847;28;19912;-74
2022/01/04 05:40:06;;;;;;;;;;;6.10;99.90;;;;;;5070114;28;20362;-73
2022/01/04 05:42:31;;;;;;;;;;;6.10;99.90;;;;;;5051615;28;19920;-73
2022/01/04 05:44:57;;;;;;;;;;;6.10;99.90;;;;;;5069187;28;20372;-73
2022/01/04 05:47:24;;;;;;;;;;;6.10;99.90;;;;;;5069931;28;20054;-73
2022/01/04 05:49:51;;;;;;;;;;;6.10;99.90;;;;;;5051884;28;19986;-73
2022/01/04 05:52:16;;;;;;;;;;;6.20;99.90;;;;;;5069700;28;19916;-73
2022/01/04 05:54:43;;;;;;;;;;;6.10;99.90;;;;;;5052335;28;20356;-73
2022/01/04 05:57:09;;;;;;;;;;;6.10;99.90;;;;;;5069695;28;19917;-73
2022/01/04 05:59:35;;;;;;;;;;;6.10;99.90;;;;;;5069701;28;19996;-72
2022/01/04 06:02:01;;;;;;;;;;;6.10;99.90;;;;;;5051681;28;19969;-73
2022/01/04 06:04:26;;;;;;;;;;;6.10;99.90;;;;;;5051194;28;19908;-73
2022/01/04 06:06:54;;;;;;;;;;;6.20;99.90;;;;;;5069440;28;19936;-73
2022/01/04 06:09:25;;;;;;;;;;;6.20;99.90;;;;;;5069818;28;20125;-72
2022/01/04 06:17:02;;;;;;;;;;;6.20;99.90;;;;;;5069880;28;19959;-72
2022/01/04 06:19:28;;;;;;;;;;;6.20;99.90;;;;;;5051403;28;20307;-73
2022/01/04 06:21:53;;;;;;;;;;;6.20;99.90;;;;;;5069536;28;19974;-73
2022/01/04 06:24:19;;;;;;;;;;;6.20;99.90;;;;;;5051236;28;20031;-73
2022/01/04 06:26:44;;;;;;;;;;;6.20;99.90;;;;;;5069453;28;19966;-73
2022/01/04 06:29:11;;;;;;;;;;;6.20;99.90;;;;;;5070142;28;19912;-73
2022/01/04 06:31:39;;;;;;;;;;;6.20;99.90;;;;;;5069704;28;19962;-72
2022/01/04 06:34:05;;;;;;;;;;;6.20;99.90;;;;;;5051661;28;20349;-73
2022/01/04 06:36:30;;;;;;;;;;;6.20;99.90;;;;;;5051372;28;19949;-71
2022/01/04 06:38:56;;;;;;;;;;;6.20;99.90;;;;;;5069570;28;19920;-73
2022/01/04 06:41:21;;;;;;;;;;;6.20;99.90;;;;;;5059946;28;19925;-73
2022/01/04 06:43:47;;;;;;;;;;;6.20;99.90;;;;;;5049673;28;19947;-72
2022/01/04 06:46:13;;;;;;;;;;;6.20;99.90;;;;;;5038620;28;20201;-73
2022/01/04 06:48:42;;;;;;;;;;;6.30;99.90;;;;;;5069316;28;20423;-72
2022/01/04 06:51:08;;;;;;;;;;;6.30;99.90;;;;;;5069187;28;20198;-72
2022/01/04 06:53:35;;;;;;;;;;;6.30;99.90;;;;;;5069437;28;19920;-73
2022/01/04 06:56:01;;;;;;;;;;;6.30;99.90;;;;;;5071306;28;19911;-73
2022/01/04 06:58:26;;;;;;;;;;;6.30;99.90;;;;;;5073150;28;19920;-73
2022/01/04 07:00:52;;;;;;;;;;;6.30;99.90;;;;;;5073012;28;20205;-75
2022/01/04 07:03:18;;;;;;;;;;;6.30;99.90;;;;;;5054752;28;19960;-72
2022/01/04 07:05:43;;;;;;;;;;;6.30;99.90;;;;;;5054826;28;19910;-73
2022/01/04 07:08:09;;;;;;;;;;;6.40;99.90;;;;;;5072827;28;19946;-75
2022/01/04 07:10:34;;;;;;;;;;;6.40;99.90;;;;;;5072726;28;19916;-72
2022/01/04 07:13:00;;;;;;;;;;;6.40;99.90;;;;;;5054578;28;19916;-73
2022/01/04 07:15:25;;;;;;;;;;;6.40;99.90;;;;;;5072447;28;20371;-74
2022/01/04 07:17:51;;;;;;;;;;;6.40;99.90;;;;;;5073094;28;19999;-73
2022/01/04 07:20:17;;;;;;;;;;;6.40;99.90;;;;;;5072259;28;19940;-73
2022/01/04 07:22:42;;;;;;;;;;;6.40;99.90;;;;;;5072849;28;19956;-73
2022/01/04 07:25:08;;;;;;;;;;;6.40;99.90;;;;;;5054488;28;19948;-73
2022/01/04 07:27:34;;;;;;;;;;;6.40;99.90;;;;;;5054508;28;20427;-74
2022/01/04 07:30:00;;;;;;;;;;;6.40;99.90;;;;;;5072350;28;20026;-73
2022/01/04 07:32:25;;;;;;;;;;;6.40;99.90;;;;;;5054171;28;20276;-72
2022/01/04 07:34:51;;;;;;;;;;;6.40;99.90;;;;;;5052457;28;19904;-74
2022/01/04 07:37:17;;;;;;;;;;;6.50;99.90;;;;;;5050766;28;19920;-73
2022/01/04 07:39:42;;;;;;;;;;;6.50;99.90;;;;;;5071916;28;19911;-73
2022/01/04 07:42:08;;;;;;;;;;;6.50;99.90;;;;;;5053905;28;19927;-74
2022/01/04 07:44:34;;;;;;;;;;;6.50;99.90;;;;;;5072315;28;20258;-72
2022/01/04 07:46:59;;;;;;;;;;;6.50;99.90;;;;;;5053737;28;19914;-73
2022/01/04 07:49:25;;;;;;;;;;;6.50;99.90;;;;;;5071848;28;20216;-73
2022/01/04 07:51:51;;;;;;;;;;;6.40;99.90;;;;;;5040987;28;19951;-74
2022/01/04 07:54:17;;;;;;;;;;;6.40;99.90;;;;;;5052286;28;20093;-73
2022/01/04 07:56:42;;;;;;;;;;;6.40;99.90;;;;;;5064487;28;19952;-73
2022/01/04 07:59:08;;;;;;;;;;;6.50;99.90;;;;;;5071974;28;20371;-73
2022/01/04 08:01:34;;;;;;;;;;;6.60;99.90;;;;;;5060466;28;20448;-74
2022/01/04 08:04:04;;;;;;;;;;;6.70;99.90;;;;;;5052359;28;19916;-74
2022/01/04 08:06:30;;;;;;;;;;;7.00;99.90;;;;;;5043654;28;19909;-73
2022/01/04 08:08:56;;;;;;;;;;;7.30;99.90;;;;;;5053100;28;19908;-74
2022/01/04 08:11:21;;;;;;;;;;;7.30;99.90;;;;;;5053502;28;19918;-74
2022/01/04 08:13:47;;;;;;;;;;;7.20;99.90;;;;;;5072112;28;19931;-72
2022/01/04 08:16:17;;;;;;;;;;;7.10;99.90;;;;;;5063175;28;20396;-73
2022/01/04 08:18:43;;;;;;;;;;;7.30;99.90;;;;;;5051690;28;19917;-74
2022/01/04 08:21:09;;;;;;;;;;;7.60;99.90;;;;;;5040424;28;20307;-74
2022/01/04 08:23:35;;;;;;;;;;;7.80;99.90;;;;;;5071865;28;19909;-74
2022/01/04 08:26:01;;;;;;;;;;;7.60;99.90;;;;;;5070889;28;19951;-74
2022/01/04 08:28:26;;;;;;;;;;;7.40;99.90;;;;;;5052822;28;20284;-74
2022/01/04 08:30:52;;;;;;;;;;;7.20;99.90;;;;;;5066804;28;19912;-74
2022/01/04 08:33:18;;;;;;;;;;;7.20;99.90;;;;;;5051636;28;19908;-74
2022/01/04 08:35:43;;;;;;;;;;;7.00;99.90;;;;;;5054851;28;20302;-73
2022/01/04 08:38:09;;;;;;;;;;;7.00;99.90;;;;;;5070925;28;20478;-74
2022/01/04 08:40:35;;;;;;;;;;;7.20;99.90;;;;;;5049436;28;20245;-74
2022/01/04 08:43:01;;;;;;;;;;;7.60;99.90;;;;;;5051076;28;19927;-74
2022/01/04 08:45:27;;;;;;;;;;;7.80;99.90;;;;;;5034420;28;19905;-74
2022/01/04 08:47:53;;;;;;;;;;;8.00;99.90;;;;;;5052924;28;20057;-74
2022/01/04 08:50:19;;;;;;;;;;;8.00;99.90;;;;;;5070407;28;19908;-74
2022/01/04 08:52:45;;;;;;;;;;;8.30;99.90;;;;;;5052814;28;19913;-74
2022/01/04 08:55:11;;;;;;;;;;;8.30;99.90;;;;;;5052709;28;19977;-74
2022/01/04 08:57:36;;;;;;;;;;;8.20;99.90;;;;;;5070250;28;20007;-75
2022/01/04 09:00:06;;;;;;;;;;;8.30;99.90;;;;;;5070596;28;19995;-75
2022/01/04 09:02:33;;;;;;;;;;;8.40;99.90;;;;;;5052749;28;19919;-74
2022/01/04 09:04:59;;;;;;;;;;;8.50;99.90;;;;;;5070443;28;20441;-74
2022/01/04 09:07:25;;;;;;;;;;;8.40;99.90;;;;;;5052031;28;19915;-74
2022/01/04 09:09:51;;;;;;;;;;;8.40;99.90;;;;;;5070256;28;20014;-74
2022/01/04 09:12:18;;;;;;;;;;;8.30;99.90;;;;;;5052413;28;19908;-74
2022/01/04 09:14:57;;;;;;;;;;;8.20;99.90;;;;;;5052643;28;19995;-76
2022/01/04 09:20:08;;;;;;;;;;;8.40;99.90;;;;;;5070356;28;19923;-74
2022/01/04 09:22:34;;;;;;;;;;;8.30;99.90;;;;;;5070374;28;19909;-74
2022/01/04 09:25:00;;;;;;;;;;;8.20;99.90;;;;;;5070471;28;19938;-74
2022/01/04 09:27:25;;;;;;;;;;;8.00;99.90;;;;;;5069727;28;19991;-74
2022/01/04 09:29:51;;;;;;;;;;;7.80;99.90;;;;;;5070003;28;19908;-74
2022/01/04 09:32:17;;;;;;;;;;;7.80;99.90;;;;;;5070099;28;19920;-75
2022/01/04 09:34:43;;;;;;;;;;;7.90;99.90;;;;;;5070342;28;19919;-74
2022/01/04 09:37:09;;;;;;;;;;;7.90;99.90;;;;;;5051596;28;19955;-74
2022/01/04 09:39:35;;;;;;;;;;;7.90;99.90;;;;;;5069517;28;19908;-75
2022/01/04 09:42:01;;;;;;;;;;;7.80;99.90;;;;;;5054964;28;20368;-75
2022/01/04 09:44:27;;;;;;;;;;;7.70;99.90;;;;;;5031898;28;19915;-74
2022/01/04 09:46:53;;;;;;;;;;;7.60;99.90;;;;;;5045073;28;20004;-73
2022/01/04 09:49:19;;;;;;;;;;;7.50;99.90;;;;;;5069693;28;19912;-73
2022/01/04 09:51:44;;;;;;;;;;;7.50;99.90;;;;;;5070187;28;19908;-73
2022/01/04 09:54:10;;;;;;;;;;;7.40;99.90;;;;;;5051914;28;19956;-74
2022/01/04 09:56:36;;;;;;;;;;;7.40;99.90;;;;;;5069818;28;20060;-73
2022/01/04 09:59:02;;;;;;;;;;;7.30;99.90;;;;;;5069923;28;19912;-74
2022/01/04 10:01:33;;;;;;;;;;;7.20;99.90;;;;;;5069655;28;19955;-74
2022/01/04 10:03:58;;;;;;;;;;;7.20;99.90;;;;;;5068894;28;19908;-75
2022/01/04 10:06:25;;;;;;;;;;;7.20;99.90;;;;;;5069782;28;19936;-74
2022/01/04 10:08:53;;;;;;;;;;;7.20;99.90;;;;;;5069486;28;19916;-74
2022/01/04 10:11:28;;;;;;;;;;;7.30;99.90;;;;;;5069223;28;20090;-73
2022/01/04 10:13:54;;;;;;;;;;;7.40;99.90;;;;;;5052066;28;20003;-74
2022/01/04 10:16:19;;;;;;;;;;;7.40;99.90;;;;;;5069345;28;20006;-74
2022/01/04 10:18:48;;;;;;;;;;;7.50;99.90;;;;;;5069217;28;19916;-73
2022/01/04 10:21:15;;;;;;;;;;;7.50;99.90;;;;;;5069307;28;19909;-74
2022/01/04 10:23:49;;;;;;;;;;;7.50;99.90;;;;;;5069937;28;19970;-73
2022/01/04 10:26:15;;;;;;;;;;;7.50;99.90;;;;;;5069223;28;20359;-74
2022/01/04 10:28:42;;;;;;;;;;;7.50;99.90;;;;;;5069058;28;19919;-75
2022/01/04 10:31:11;;;;;;;;;;;8.30;99.90;;;;;;5071105;28;20360;-73
2022/01/04 10:33:37;;;;;;;;;;;7.60;99.90;;;;;;5073490;28;19967;-73
2022/01/04 10:36:11;;;;;;;;;;;7.60;99.90;;;;;;5055027;28;19930;-74
2022/01/04 10:38:46;;;;;;;;;;;7.50;99.90;;;;;;5054634;28;19920;-73
2022/01/04 10:41:25;;;;;;;;;;;7.50;99.90;;;;;;5064696;28;19921;-74
2022/01/04 10:43:52;;;;;;;;;;;7.50;99.90;;;;;;5034993;28;19917;-74
2022/01/04 10:46:20;;;;;;;;;;;7.50;99.90;;;;;;5061451;28;20204;-74
2022/01/04 10:48:47;;;;;;;;;;;7.50;99.90;;;;;;5072935;28;20375;-74
2022/01/04 10:51:14;;;;;;;;;;;7.60;99.90;;;;;;5072696;28;19916;-74
2022/01/04 10:53:49;;;;;;;;;;;7.60;99.90;;;;;;5073533;28;20402;-74
2022/01/04 10:56:25;;;;;;;;;;;7.50;99.90;;;;;;5072763;28;19904;-74
2022/01/04 10:58:52;;;;;;;;;;;7.40;99.90;;;;;;5072710;28;20533;-74
2022/01/04 11:01:19;;;;;;;;;;;7.30;99.90;;;;;;5054581;28;20499;-75
2022/01/04 11:03:46;;;;;;;;;;;7.20;99.90;;;;;;5073068;28;19912;-74
2022/01/04 11:06:18;;;;;;;;;;;7.20;99.90;;;;;;5072744;28;19904;-74
2022/01/04 11:08:44;;;;;;;;;;;8.10;99.90;;;;;;5072599;28;19969;-72
2022/01/04 11:11:10;;;;;;;;;;;7.10;99.90;;;;;;5064386;28;19909;-74
2022/01/04 11:13:36;;;;;;;;;;;7.10;99.90;;;;;;5053180;28;20356;-74
2022/01/04 11:16:02;;;;;;;;;;;7.00;99.90;;;;;;5058484;28;20029;-74
2022/01/04 11:18:28;;;;;;;;;;;7.10;99.90;;;;;;5072709;28;19920;-74
2022/01/04 11:20:54;;;;;;;;;;;7.10;99.90;;;;;;5054321;28;20378;-73
2022/01/04 11:23:24;;;;;;;;;;;7.10;99.90;;;;;;5054653;28;19913;-73
2022/01/04 11:25:50;;;;;;;;;;;7.10;99.90;;;;;;5054490;28;19927;-74
2022/01/04 11:28:16;;;;;;;;;;;7.20;99.90;;;;;;5071693;28;19912;-74
2022/01/04 11:30:50;;;;;;;;;;;7.10;99.90;;;;;;5072035;28;19970;-74
2022/01/04 11:33:20;;;;;;;;;;;7.10;99.90;;;;;;5054662;28;19962;-75
2022/01/04 11:35:47;;;;;;;;;;;7.10;99.90;;;;;;5054098;28;19909;-74
2022/01/04 11:38:12;;;;;;;;;;;7.20;99.90;;;;;;5054221;28;19923;-75
2022/01/04 11:40:41;;;;;;;;;;;7.20;99.90;;;;;;5068752;28;20379;-74
2022/01/04 11:43:26;;;;;;;;;;;7.30;99.90;;;;;;5051268;28;19983;-74
2022/01/04 11:45:51;;;;;;;;;;;7.50;99.90;;;;;;5038961;28;20355;-74
2022/01/04 11:48:23;;;;;;;;;;;8.20;99.90;;;;;;5071721;28;19917;-74
2022/01/04 11:50:48;;;;;;;;;;;8.70;99.90;;;;;;5071788;28;20443;-74
2022/01/04 11:53:14;;;;;;;;;;;8.60;99.90;;;;;;5054303;28;20007;-74
2022/01/04 11:55:46;;;;;;;;;;;8.40;99.90;;;;;;5071870;28;19939;-75
2022/01/04 11:58:17;;;;;;;;;;;8.20;99.90;;;;;;5071612;28;20336;-74
2022/01/04 12:00:45;;;;;;;;;;;7.90;99.90;;;;;;5068075;28;19908;-73
2022/01/04 12:03:14;;;;;;;;;;;7.70;99.90;;;;;;5034104;28;19921;-74
2022/01/04 12:05:58;;;;;;;;;;;7.70;99.90;;;;;;5054867;28;19908;-74
2022/01/04 12:08:25;;;;;;;;;;;7.70;99.90;;;;;;5053428;28;19913;-74
2022/01/04 12:10:51;;;;;;;;;;;7.60;99.90;;;;;;5071468;28;19912;-74
2022/01/04 12:13:18;;;;;;;;;;;7.60;99.90;;;;;;5072047;28;19916;-74
2022/01/04 12:15:50;;;;;;;;;;;7.60;99.90;;;;;;5071869;28;20407;-74
2022/01/04 12:18:24;;;;;;;;;;;7.50;99.90;;;;;;5071708;28;20007;-74
2022/01/04 12:20:52;;;;;;;;;;;7.50;99.90;;;;;;5071097;28;19912;-73
2022/01/04 12:23:26;;;;;;;;;;;7.40;99.90;;;;;;5071907;28;19944;-73
2022/01/04 12:26:14;;;;;;;;;;;7.30;99.90;;;;;;5071095;28;20007;-74
2022/01/04 12:28:40;;;;;;;;;;;7.20;99.90;;;;;;5052909;28;19912;-74
2022/01/04 12:31:16;;;;;;;;;;;7.20;99.90;;;;;;5071191;28;20011;-73
2022/01/04 12:33:58;;;;;;;;;;;7.20;99.90;;;;;;5053600;28;19912;-74
2022/01/04 12:36:37;;;;;;;;;;;7.20;99.90;;;;;;5052355;28;19909;-74
2022/01/04 12:39:09;;;;;;;;;;;7.10;99.90;;;;;;5071036;28;19963;-74
2022/01/04 12:41:36;;;;;;;;;;;7.20;99.90;;;;;;5041689;28;19917;-74
2022/01/04 12:44:03;;;;;;;;;;;7.20;99.90;;;;;;5051732;28;19947;-74
2022/01/04 12:46:30;;;;;;;;;;;7.30;99.90;;;;;;5051051;28;19912;-74
2022/01/04 12:48:56;;;;;;;;;;;7.20;99.90;;;;;;5051246;28;19913;-74
2022/01/04 12:51:23;;;;;;;;;;;7.20;99.90;;;;;;5059907;28;19998;-74
2022/01/04 12:53:49;;;;;;;;;;;7.20;99.90;;;;;;5052543;28;19912;-74
2022/01/04 12:56:14;;;;;;;;;;;7.20;99.90;;;;;;5070735;28;19909;-74
2022/01/04 12:58:40;;;;;;;;;;;7.20;99.90;;;;;;5052735;28;19916;-75
2022/01/04 13:01:05;;;;;;;;;;;7.20;99.90;;;;;;5052276;28;19905;-74
2022/01/04 13:03:31;;;;;;;;;;;7.20;99.90;;;;;;5071059;28;19916;-75
2022/01/04 13:06:00;;;;;;;;;;;7.20;99.90;;;;;;5070425;28;19944;-73
2022/01/04 13:08:26;;;;;;;;;;;7.20;99.90;;;;;;5052565;28;19912;-73
2022/01/04 13:11:13;;;;;;;;;;;7.20;99.90;;;;;;5070110;28;19908;-73
2022/01/04 13:13:40;;;;;;;;;;;7.10;99.90;;;;;;5052532;28;19916;-73
2022/01/04 13:16:29;;;;;;;;;;;7.10;99.90;;;;;;5070320;28;19905;-73
2022/01/04 13:19:16;;;;;;;;;;;7.10;99.90;;;;;;5052168;28;19916;-74
2022/01/04 13:21:42;;;;;;;;;;;7.10;99.90;;;;;;5069867;28;19908;-74
2022/01/04 13:24:08;;;;;;;;;;;7.00;99.90;;;;;;5070455;28;19912;-74
2022/01/04 13:26:34;;;;;;;;;;;7.00;99.90;;;;;;5052252;28;19908;-75
2022/01/04 13:29:00;;;;;;;;;;;7.00;99.90;;;;;;5070108;28;20007;-74
2022/01/04 13:31:26;;;;;;;;;;;6.90;99.90;;;;;;5069841;28;19904;-74
2022/01/04 13:33:52;;;;;;;;;;;6.80;99.90;;;;;;5070654;28;19920;-74
2022/01/04 13:36:20;;;;;;;;;;;6.80;99.90;;;;;;5070084;28;19961;-74
2022/01/04 13:38:46;;;;;;;;;;;6.70;99.90;;;;;;5051321;28;20278;-74
2022/01/04 13:41:12;;;;;;;;;;;6.60;99.90;;;;;;5061996;28;19917;-73
2022/01/04 13:43:40;;;;;;;;;;;6.60;99.90;;;;;;5050559;28;20276;-73
2022/01/04 13:46:12;;;;;;;;;;;6.60;99.90;;;;;;5039009;28;20056;-74
2022/01/04 13:48:39;;;;;;;;;;;6.50;99.90;;;;;;5070371;28;20354;-74
2022/01/04 13:51:09;;;;;;;;;;;6.50;99.90;;;;;;5062571;28;19916;-74
2022/01/04 13:53:36;;;;;;;;;;;6.50;99.90;;;;;;5049823;28;20293;-74
2022/01/04 13:56:05;;;;;;;;;;;6.50;99.90;;;;;;5038258;28;19908;-74
2022/01/04 13:58:35;;;;;;;;;;;6.50;99.90;;;;;;5051123;28;19924;-74
2022/01/04 14:01:21;;;;;;;;;;;6.40;99.90;;;;;;5051391;28;19915;-74
2022/01/04 14:03:55;;;;;;;;;;;6.50;99.90;;;;;;5059212;28;19999;-73
2022/01/04 14:06:32;;;;;;;;;;;6.40;99.90;;;;;;5068999;28;19958;-74
2022/01/04 14:08:59;;;;;;;;;;;6.40;99.90;;;;;;5051654;28;20276;-74
2022/01/04 14:11:26;;;;;;;;;;;6.30;99.90;;;;;;5051162;28;20026;-74
2022/01/04 14:13:52;;;;;;;;;;;6.20;99.90;;;;;;5070034;28;19920;-74
2022/01/04 14:16:19;;;;;;;;;;;6.20;99.90;;;;;;5069335;28;19988;-74
2022/01/04 14:19:00;;;;;;;;;;;6.20;99.90;;;;;;5069434;28;19924;-73
2022/01/04 14:21:37;;;;;;;;;;;6.10;99.90;;;;;;5051135;28;19912;-73
2022/01/04 14:24:06;;;;;;;;;;;6.10;99.90;;;;;;5069523;28;20395;-74
2022/01/04 14:26:32;;;;;;;;;;;6.10;99.90;;;;;;5051259;28;20324;-74
2022/01/04 14:28:59;;;;;;;;;;;6.10;99.90;;;;;;5069580;28;19916;-75
2022/01/04 14:31:24;;;;;;;;;;;6.00;99.90;;;;;;5069117;28;20422;-73
2022/01/04 14:33:50;;;;;;;;;;;6.00;99.90;;;;;;5051615;28;19943;-73
2022/01/04 14:36:17;;;;;;;;;;;6.00;99.90;;;;;;5069292;28;19915;-73
2022/01/04 14:38:43;;;;;;;;;;;6.00;99.90;;;;;;5069421;28;20397;-73
2022/01/04 14:41:08;;;;;;;;;;;6.00;99.90;;;;;;5061736;28;20260;-74